Terminal Aerodrome Forecast
Issued by NWS

Home | Current Version | Previous Version | Text Only | Print | Product List | Glossary On
Versions: 1 2 3 4 5 6 7 8 9 10 11 12 13 14
000
FTAK31 PAJN 281100
TAFASI
TAF
PASI 281135Z 2812/2912 32005KT P6SM -RA BKN035 OVC050 WS020/12030KT
     FM281500 07015G25KT 6SM RA BR OVC015 WS020/14035KT
     FM281900 20020G30KT 5SM SHRA BR OVC025 WS020/18040KT
     FM290000 20010G20KT 6SM -SHRA BR BKN025 OVC050 WS020/20030KT
     FM290300 19008KT 6SM -SHRA BR VCTS BKN025CB OVC050
     FM290700 16006KT P6SM -SHRA OVC025=

USA.gov is the U.S. government's official web portal to all federal, state and local government web resources and services.